KIMT

Ford Airport

Iron Mountain Kingsford, Michigan, USA
METAR KIMT 162354Z AUTO 28007KT 10SM CLR 04/M08 A2989 RMK AO2 SLP135 T00441078 10089 20044 53005
Observed Flight Rules
Dec-16 @ 23:54 UTC (an hour ago) Visual Flight Rules
Wind Visibility Clouds
280° at 7 knots 10 miles
  • Clear skies
Temperatures Readings
Current 4°C / 39°F
Dewpoint -8°C / 18°F
Humidity 42%
Altimeter 29.89" Hg
Pressure 1013.5 hPa
Elevation 349
METAR KIMT 162354Z AUTO 28007KT 10SM CLR 04/M08 A2989 RMK AO2 SLP135 T00441078 10089 20044 53005
Observed Flight Rules
Dec-16 @ 23:54 UTC
(an hour ago)
VFR
Wind Visibility
280° at 7 knots 10 miles
Clouds
  • Clear skies
Temperature Dewpoint
4°C / 39°F -8°C / 18°F
Humidity Altimeter Pressure
42% 29.89" Hg 1013.5 hPa